createdAt,value
2023-04-16T00:02:18.069Z,11.43
2023-04-16T00:04:46.560Z,11.90
2023-04-16T00:07:15.001Z,14.97
2023-04-16T00:09:43.369Z,11.83
2023-04-16T00:12:11.765Z,10.80
2023-04-16T00:14:40.091Z,15.80
2023-04-16T00:17:09.790Z,11.60
2023-04-16T00:19:38.224Z,10.33
2023-04-16T00:22:06.678Z,13.20
2023-04-16T00:24:35.022Z,17.73
2023-04-16T00:27:03.320Z,16.47
2023-04-16T00:29:32.414Z,15.60
2023-04-16T00:32:00.810Z,19.60
2023-04-16T00:34:30.548Z,10.50
2023-04-16T00:36:58.875Z,12.97
2023-04-16T00:39:27.151Z,8.80
2023-04-16T00:41:55.531Z,13.33
2023-04-16T00:44:23.876Z,15.63
2023-04-16T00:46:52.752Z,10.80
2023-04-16T00:49:21.313Z,16.07
2023-04-16T00:51:51.321Z,12.23
2023-04-16T00:54:20.188Z,13.67
2023-04-16T00:56:48.666Z,7.30
2023-04-16T00:59:17.404Z,11.83
2023-04-16T01:01:45.757Z,8.93
2023-04-16T01:04:14.284Z,15.90
2023-04-16T01:06:44.579Z,11.67
2023-04-16T01:09:14.370Z,14.90
2023-04-16T01:11:42.773Z,14.23
2023-04-16T01:14:11.146Z,12.77
2023-04-16T01:16:39.697Z,16.97
2023-04-16T01:19:08.433Z,13.07
2023-04-16T01:21:38.412Z,13.50
2023-04-16T01:24:07.099Z,13.07
2023-04-16T01:26:35.406Z,18.63
2023-04-16T01:29:04.183Z,14.67
2023-04-16T01:31:32.559Z,8.70
2023-04-16T01:34:12.089Z,11.30
2023-04-16T01:36:41.774Z,10.90
2023-04-16T01:39:11.619Z,17.23
2023-04-16T01:41:39.977Z,11.23
2023-04-16T01:44:08.257Z,8.67
2023-04-16T01:46:37.256Z,12.00
2023-04-16T01:49:05.947Z,8.33
2023-04-16T01:51:34.406Z,14.87
2023-04-16T01:54:04.287Z,10.50
2023-04-16T01:56:32.578Z,13.90
2023-04-16T01:59:00.943Z,11.83
2023-04-16T02:01:35.702Z,14.13
2023-04-16T02:04:05.443Z,9.00
2023-04-16T02:06:33.946Z,10.60
2023-04-16T02:09:04.976Z,11.20
2023-04-16T02:11:33.668Z,11.63
2023-04-16T02:14:02.042Z,15.33
2023-04-16T02:16:30.516Z,13.90
2023-04-16T02:19:11.331Z,12.97
2023-04-16T02:21:41.812Z,17.80
2023-04-16T02:24:11.520Z,11.00
2023-04-16T02:26:40.038Z,14.23
2023-04-16T02:29:14.945Z,11.60
2023-04-16T02:31:47.627Z,10.87
2023-04-16T02:34:16.576Z,13.93
2023-04-16T02:36:44.871Z,12.20
2023-04-16T02:39:14.628Z,11.20
2023-04-16T02:41:43.041Z,13.40
2023-04-16T02:44:11.362Z,15.57
2023-04-16T02:46:39.616Z,11.97
2023-04-16T02:49:08.312Z,12.40
2023-04-16T02:51:36.836Z,12.00
2023-04-16T02:54:05.354Z,12.67
2023-04-16T02:56:35.968Z,15.40
2023-04-16T02:59:04.280Z,11.33
2023-04-16T03:01:32.883Z,10.83
2023-04-16T03:04:01.311Z,16.00
2023-04-16T03:06:30.149Z,12.27
2023-04-16T03:08:58.624Z,12.30
2023-04-16T03:11:26.963Z,15.73
2023-04-16T03:13:57.264Z,12.60
2023-04-16T03:16:27.057Z,13.40
2023-04-16T03:18:55.451Z,9.20
2023-04-16T03:21:23.855Z,17.93
2023-04-16T03:23:53.356Z,18.47
2023-04-16T03:26:23.479Z,12.00
2023-04-16T03:28:52.409Z,11.20
2023-04-16T03:31:22.202Z,10.63
2023-04-16T03:33:50.803Z,12.30
2023-04-16T03:36:19.820Z,10.07
2023-04-16T03:38:49.091Z,17.53
2023-04-16T03:41:18.213Z,13.73
2023-04-16T03:43:46.876Z,14.77
2023-04-16T03:46:15.452Z,11.27
2023-04-16T03:48:45.092Z,15.50
2023-04-16T03:51:14.614Z,11.60
2023-04-16T03:53:43.048Z,11.73
2023-04-16T03:56:11.625Z,10.93
2023-04-16T03:58:39.955Z,14.10
2023-04-16T04:01:09.495Z,9.40
2023-04-16T04:03:39.605Z,10.80
2023-04-16T04:06:10.116Z,10.00
2023-04-16T04:08:38.536Z,13.60
2023-04-16T04:11:07.929Z,15.47
2023-04-16T04:13:37.266Z,11.90
2023-04-16T04:16:06.572Z,13.00
2023-04-16T04:18:35.092Z,11.77
2023-04-16T04:21:07.044Z,9.93
2023-04-16T04:23:37.474Z,11.13
2023-04-16T04:26:07.774Z,12.00
2023-04-16T04:28:37.157Z,12.67
2023-04-16T04:31:06.491Z,9.83
2023-04-16T04:33:34.882Z,10.80
2023-04-16T04:36:03.616Z,12.00
2023-04-16T04:38:32.529Z,12.53
2023-04-16T04:41:02.225Z,15.00
2023-04-16T04:43:34.615Z,17.73
2023-04-16T04:46:03.182Z,17.00
2023-04-16T04:48:33.495Z,15.07
2023-04-16T04:51:05.238Z,18.90
2023-04-16T04:53:33.937Z,15.70
2023-04-16T04:56:12.207Z,14.07
2023-04-16T04:58:41.923Z,19.50
2023-04-16T05:01:10.637Z,20.43
2023-04-16T05:03:39.126Z,13.67
2023-04-16T05:06:08.433Z,17.30
2023-04-16T05:08:52.018Z,24.73
2023-04-16T05:11:22.053Z,17.80
2023-04-16T05:13:50.386Z,19.77
2023-04-16T05:16:18.773Z,17.70
2023-04-16T05:18:47.107Z,15.17
2023-04-16T05:21:15.427Z,15.97
2023-04-16T05:23:43.695Z,14.37
2023-04-16T05:26:11.968Z,17.43
2023-04-16T05:28:41.639Z,18.53
2023-04-16T05:31:10.130Z,17.57
2023-04-16T05:33:38.562Z,15.60
2023-04-16T05:36:07.126Z,17.93
2023-04-16T05:38:35.416Z,20.60
2023-04-16T05:41:04.030Z,19.23
2023-04-16T05:43:32.524Z,16.07
2023-04-16T05:46:02.282Z,22.00
2023-04-16T05:48:31.086Z,13.33
2023-04-16T05:50:59.416Z,14.20
2023-04-16T05:53:27.707Z,11.83
2023-04-16T05:55:56.036Z,13.53
2023-04-16T05:58:24.480Z,10.27
2023-04-16T06:00:55.167Z,13.90
2023-04-16T06:03:24.937Z,13.73
2023-04-16T06:05:53.368Z,11.10
2023-04-16T06:08:21.736Z,11.67
2023-04-16T06:10:51.175Z,13.70
2023-04-16T06:13:19.636Z,14.13
2023-04-16T06:15:48.011Z,11.53
2023-04-16T06:18:16.459Z,13.47
2023-04-16T06:20:46.176Z,17.83
2023-04-16T06:23:14.531Z,21.93
2023-04-16T06:25:43.326Z,15.00
2023-04-16T06:28:11.662Z,14.70
2023-04-16T06:30:42.219Z,18.70
2023-04-16T06:33:11.685Z,14.43
2023-04-16T06:35:39.998Z,12.10
2023-04-16T06:38:09.675Z,13.87
2023-04-16T06:40:38.175Z,14.50
2023-04-16T06:43:07.004Z,9.43
2023-04-16T06:45:35.332Z,9.47
2023-04-16T06:48:05.104Z,9.83
2023-04-16T06:50:33.491Z,13.37
2023-04-16T06:53:02.055Z,11.30
2023-04-16T06:55:31.776Z,8.83
2023-04-16T06:58:00.114Z,12.73
2023-04-16T07:00:28.472Z,13.63
2023-04-16T07:02:58.603Z,7.67
2023-04-16T07:05:27.208Z,5.47
2023-04-16T07:07:57.521Z,8.57
2023-04-16T07:10:26.279Z,11.03
2023-04-16T07:12:56.157Z,11.37
2023-04-16T07:15:24.568Z,9.80
2023-04-16T07:17:52.909Z,9.63
2023-04-16T07:20:21.436Z,8.10
2023-04-16T07:22:49.713Z,12.93
2023-04-16T07:25:18.043Z,10.47
2023-04-16T07:27:46.636Z,8.63
2023-04-16T07:30:17.020Z,12.07
2023-04-16T07:32:45.434Z,13.10
2023-04-16T07:35:13.827Z,9.00
2023-04-16T07:37:42.171Z,8.83
2023-04-16T07:40:11.200Z,8.60
2023-04-16T07:42:39.531Z,8.83
2023-04-16T07:45:08.940Z,6.30
2023-04-16T07:47:38.715Z,7.33
2023-04-16T07:50:08.445Z,9.73
2023-04-16T07:52:38.876Z,8.83
2023-04-16T07:55:07.922Z,9.17
2023-04-16T07:57:36.494Z,7.80
2023-04-16T08:00:06.012Z,5.13
2023-04-16T08:02:42.945Z,7.93
2023-04-16T08:05:12.648Z,10.30
2023-04-16T08:07:41.100Z,5.50
2023-04-16T08:10:10.339Z,9.00
2023-04-16T08:12:38.748Z,4.87
2023-04-16T08:15:08.368Z,8.20
2023-04-16T08:17:37.783Z,9.93
2023-04-16T08:20:09.023Z,6.67
2023-04-16T08:22:37.892Z,5.90
2023-04-16T08:25:06.961Z,6.20
2023-04-16T08:27:35.400Z,10.40
2023-04-16T08:30:03.777Z,6.00
2023-04-16T08:32:33.020Z,8.53
2023-04-16T08:35:01.572Z,5.97
2023-04-16T08:37:31.551Z,6.27
2023-04-16T08:39:59.857Z,8.03
2023-04-16T08:42:33.129Z,6.87
2023-04-16T08:45:08.523Z,5.90
2023-04-16T08:47:37.831Z,5.90
2023-04-16T08:50:07.108Z,7.40
2023-04-16T08:52:44.218Z,4.20
2023-04-16T08:55:14.691Z,3.80
2023-04-16T08:57:48.720Z,4.30
2023-04-16T09:00:17.667Z,5.17
2023-04-16T09:02:46.543Z,5.43
2023-04-16T09:05:18.078Z,4.83
2023-04-16T09:07:48.828Z,4.60
2023-04-16T09:10:17.448Z,4.43
2023-04-16T09:12:46.110Z,3.17
2023-04-16T09:15:15.340Z,3.70
2023-04-16T09:17:43.731Z,5.23
2023-04-16T09:20:12.652Z,4.37
2023-04-16T09:22:41.207Z,3.37
2023-04-16T09:25:11.915Z,4.40
2023-04-16T09:27:40.824Z,4.00
2023-04-16T09:30:23.212Z,5.40
2023-04-16T09:32:53.368Z,3.87
2023-04-16T09:35:22.331Z,3.80
2023-04-16T09:37:57.933Z,4.07
2023-04-16T09:40:30.534Z,7.07
2023-04-16T09:43:00.823Z,3.97
2023-04-16T09:45:34.075Z,4.63
2023-04-16T09:48:06.502Z,6.07
2023-04-16T09:50:34.972Z,5.00
2023-04-16T09:53:04.610Z,5.90
2023-04-16T09:55:34.486Z,3.80
2023-04-16T09:58:02.947Z,3.30
2023-04-16T10:00:32.332Z,6.13
2023-04-16T10:03:07.728Z,5.60
2023-04-16T10:05:36.593Z,5.60
2023-04-16T10:08:13.220Z,3.90
2023-04-16T10:10:43.573Z,2.53
2023-04-16T10:13:12.876Z,3.57
2023-04-16T10:15:41.798Z,3.93
2023-04-16T10:18:10.807Z,3.60
2023-04-16T10:20:39.696Z,3.93
2023-04-16T10:23:08.277Z,3.90
2023-04-16T10:25:37.066Z,5.23
2023-04-16T10:28:08.187Z,6.10
2023-04-16T10:30:37.165Z,4.10
2023-04-16T10:33:07.117Z,4.20
2023-04-16T10:35:40.712Z,2.90
2023-04-16T10:38:23.822Z,7.17
2023-04-16T10:40:52.141Z,3.10
2023-04-16T10:43:21.851Z,4.50
2023-04-16T10:45:50.264Z,5.17
2023-04-16T10:48:20.248Z,5.23
2023-04-16T10:51:00.254Z,4.60
2023-04-16T10:53:29.412Z,4.00
2023-04-16T10:56:17.283Z,4.53
2023-04-16T10:58:46.990Z,3.40
2023-04-16T11:01:16.993Z,3.60
2023-04-16T11:03:48.133Z,5.57
2023-04-16T11:06:18.725Z,3.00
2023-04-16T11:08:54.496Z,3.17
2023-04-16T11:11:23.964Z,3.43
2023-04-16T11:13:57.473Z,3.63
2023-04-16T11:16:27.575Z,4.50
2023-04-16T11:18:57.235Z,2.87
2023-04-16T11:21:26.755Z,3.17
2023-04-16T11:23:56.778Z,3.70
2023-04-16T11:26:26.543Z,3.77
2023-04-16T11:28:57.775Z,3.60
2023-04-16T11:31:27.434Z,1.30
2023-04-16T11:33:57.909Z,2.93
2023-04-16T11:36:27.750Z,6.20
2023-04-16T11:39:03.861Z,4.50
2023-04-16T11:41:32.305Z,2.50
2023-04-16T11:44:02.030Z,2.40
2023-04-16T11:46:40.875Z,3.50
2023-04-16T11:49:09.634Z,2.73
2023-04-16T11:51:41.676Z,2.70
2023-04-16T11:54:12.004Z,6.17
2023-04-16T11:56:47.823Z,2.20
2023-04-16T11:59:18.851Z,3.53
2023-04-16T12:01:49.403Z,4.60
2023-04-16T12:04:21.023Z,2.37
2023-04-16T12:07:11.856Z,1.97
2023-04-16T12:09:42.349Z,3.50
2023-04-16T12:12:31.098Z,4.03
2023-04-16T12:15:03.711Z,2.33
2023-04-16T12:17:33.845Z,3.00
2023-04-16T12:20:05.803Z,2.20
2023-04-16T12:22:37.076Z,2.57
2023-04-16T12:25:07.602Z,5.00
2023-04-16T12:27:58.117Z,2.60
2023-04-16T12:30:28.038Z,3.20
2023-04-16T12:33:17.696Z,2.50
2023-04-16T12:35:46.529Z,2.43
2023-04-16T12:38:15.494Z,2.60
2023-04-16T12:40:45.144Z,5.47
2023-04-16T12:43:13.868Z,2.33
2023-04-16T12:45:43.953Z,4.10
2023-04-16T12:48:15.453Z,2.77
2023-04-16T12:50:44.432Z,4.93
2023-04-16T12:53:13.153Z,4.10
2023-04-16T12:55:41.593Z,2.23
2023-04-16T12:58:12.458Z,2.50
2023-04-16T13:00:41.534Z,2.40
2023-04-16T13:03:11.319Z,2.70
2023-04-16T13:05:39.973Z,2.33
2023-04-16T13:08:08.382Z,3.80
2023-04-16T13:10:36.841Z,2.30
2023-04-16T13:13:05.087Z,2.47
2023-04-16T13:15:33.448Z,2.30
2023-04-16T13:18:01.844Z,7.33
2023-04-16T13:20:31.565Z,3.77
2023-04-16T13:23:00.422Z,6.27
2023-04-16T13:25:30.396Z,2.00
2023-04-16T13:27:58.736Z,3.20
2023-04-16T13:30:29.350Z,2.10
2023-04-16T13:32:58.157Z,2.30
2023-04-16T13:35:27.306Z,2.67
2023-04-16T13:37:56.989Z,2.30
2023-04-16T13:40:25.478Z,1.93
2023-04-16T13:42:53.829Z,2.27
2023-04-16T13:45:22.156Z,2.10
2023-04-16T13:47:50.559Z,1.90
2023-04-16T13:50:19.030Z,3.80
2023-04-16T13:52:47.421Z,2.57
2023-04-16T13:55:19.232Z,2.57
2023-04-16T13:57:48.346Z,2.53
2023-04-16T14:00:17.817Z,4.70
2023-04-16T14:02:48.652Z,4.43
2023-04-16T14:05:17.497Z,2.83
2023-04-16T14:07:46.282Z,1.90
2023-04-16T14:10:15.993Z,2.00
2023-04-16T14:12:44.680Z,2.90
2023-04-16T14:15:14.766Z,2.13
2023-04-16T14:17:44.135Z,2.93
2023-04-16T14:20:13.845Z,3.23
2023-04-16T14:22:43.915Z,2.73
2023-04-16T14:25:12.237Z,4.60
2023-04-16T14:27:42.359Z,4.47
2023-04-16T14:30:11.204Z,4.37
2023-04-16T14:32:39.585Z,6.83
2023-04-16T14:35:08.763Z,2.77
2023-04-16T14:37:38.408Z,2.17
2023-04-16T14:40:09.008Z,2.50
2023-04-16T14:42:37.829Z,2.37
2023-04-16T14:45:08.856Z,3.07
2023-04-16T14:47:38.134Z,1.93
2023-04-16T14:50:07.548Z,2.53
2023-04-16T14:52:35.876Z,3.90
2023-04-16T14:55:05.537Z,3.73
2023-04-16T14:57:33.922Z,3.97
2023-04-16T15:00:02.231Z,2.17
2023-04-16T15:02:32.226Z,3.80
2023-04-16T15:05:01.614Z,2.07
2023-04-16T15:07:30.203Z,3.67
2023-04-16T15:09:58.506Z,4.60
2023-04-16T15:12:27.109Z,3.00
2023-04-16T15:14:55.385Z,3.33
2023-04-16T15:17:23.879Z,2.27
2023-04-16T15:19:53.794Z,3.53
2023-04-16T15:22:22.087Z,4.53
2023-04-16T15:24:50.901Z,2.87
2023-04-16T15:27:38.106Z,6.90
2023-04-16T15:30:07.399Z,2.93
2023-04-16T15:32:35.944Z,2.67
2023-04-16T15:35:06.260Z,5.40
2023-04-16T15:37:34.615Z,2.50
2023-04-16T15:40:05.500Z,5.60
2023-04-16T15:42:33.822Z,3.83
2023-04-16T15:45:02.243Z,2.63
2023-04-16T15:47:30.627Z,2.40
2023-04-16T15:49:58.929Z,5.07
2023-04-16T15:52:29.345Z,1.90
2023-04-16T15:54:57.868Z,3.80
2023-04-16T15:57:26.238Z,3.07
2023-04-16T16:00:06.405Z,2.40
2023-04-16T16:02:35.304Z,5.43
2023-04-16T16:05:04.660Z,2.67
2023-04-16T16:07:34.622Z,2.37
2023-04-16T16:10:03.041Z,2.60
2023-04-16T16:12:31.690Z,2.80
2023-04-16T16:15:00.062Z,2.30
2023-04-16T16:17:28.419Z,3.30
2023-04-16T16:19:57.689Z,2.77
2023-04-16T16:22:26.043Z,3.73
2023-04-16T16:24:57.686Z,3.43
2023-04-16T16:27:26.048Z,3.80
2023-04-16T16:29:54.349Z,4.73
2023-04-16T16:32:22.670Z,3.23
2023-04-16T16:34:51.102Z,3.60
2023-04-16T16:37:19.414Z,4.03
2023-04-16T16:39:47.769Z,2.83
2023-04-16T16:42:18.948Z,7.30
2023-04-16T16:44:48.865Z,3.50
2023-04-16T16:47:17.336Z,2.90
2023-04-16T16:49:45.708Z,4.53
2023-04-16T16:52:14.058Z,4.33
2023-04-16T16:54:43.116Z,3.80
2023-04-16T16:57:11.507Z,3.40
2023-04-16T16:59:41.223Z,4.27
2023-04-16T17:02:09.691Z,3.23
2023-04-16T17:04:38.200Z,2.90
2023-04-16T17:07:06.594Z,3.10
2023-04-16T17:09:34.997Z,5.80
2023-04-16T17:12:03.458Z,4.27
2023-04-16T17:14:32.935Z,4.97
2023-04-16T17:17:02.836Z,3.00
2023-04-16T17:19:31.360Z,3.17
2023-04-16T17:21:59.733Z,4.37
2023-04-16T17:24:31.002Z,5.57
2023-04-16T17:26:59.575Z,3.50
2023-04-16T17:29:28.272Z,2.90
2023-04-16T17:31:56.688Z,2.20
2023-04-16T17:34:26.419Z,4.60
2023-04-16T17:36:56.824Z,2.93
2023-04-16T17:39:25.146Z,2.70
2023-04-16T17:41:57.382Z,2.50
2023-04-16T17:44:28.028Z,4.50
2023-04-16T17:46:56.404Z,2.97
2023-04-16T17:49:26.080Z,3.07
2023-04-16T17:51:54.756Z,2.37
2023-04-16T17:54:23.149Z,3.70
2023-04-16T17:56:51.610Z,3.40
2023-04-16T17:59:19.890Z,5.57
2023-04-16T18:01:49.602Z,2.40
2023-04-16T18:04:18.674Z,5.40
2023-04-16T18:06:48.807Z,5.63
2023-04-16T18:09:17.215Z,5.63
2023-04-16T18:11:45.599Z,3.50
2023-04-16T18:14:16.915Z,5.40
2023-04-16T18:16:47.812Z,3.90
2023-04-16T18:19:16.635Z,4.87
2023-04-16T18:21:45.036Z,3.90
2023-04-16T18:24:15.496Z,4.07
2023-04-16T18:26:46.682Z,4.60
2023-04-16T18:29:16.833Z,6.40
2023-04-16T18:31:46.300Z,4.87
2023-04-16T18:34:14.779Z,5.40
2023-04-16T18:36:43.278Z,4.20
2023-04-16T18:39:11.594Z,4.47
2023-04-16T18:41:42.875Z,11.20
2023-04-16T18:44:11.772Z,4.23
2023-04-16T18:46:40.107Z,7.00
2023-04-16T18:49:08.813Z,5.10
2023-04-16T18:51:37.320Z,16.20
2023-04-16T18:54:05.786Z,18.63
2023-04-16T18:56:34.133Z,3.83
2023-04-16T18:59:03.893Z,4.23
2023-04-16T19:01:38.108Z,6.90
2023-04-16T19:04:06.831Z,3.53
2023-04-16T19:06:35.534Z,4.30
2023-04-16T19:09:03.887Z,3.43
2023-04-16T19:11:33.090Z,6.80
2023-04-16T19:14:03.370Z,3.57
2023-04-16T19:16:31.839Z,2.70
2023-04-16T19:19:00.355Z,2.50
2023-04-16T19:21:28.665Z,3.03
2023-04-16T19:23:56.953Z,3.67
2023-04-16T19:26:25.389Z,4.47
2023-04-16T19:28:53.716Z,4.00
2023-04-16T19:31:23.631Z,3.70
2023-04-16T19:33:52.583Z,3.80
2023-04-16T19:36:21.025Z,5.17
2023-04-16T19:38:49.538Z,3.80
2023-04-16T19:41:17.951Z,5.20
2023-04-16T19:43:46.496Z,5.00
2023-04-16T19:46:15.561Z,3.63
2023-04-16T19:48:45.475Z,6.03
2023-04-16T19:51:13.838Z,3.40
2023-04-16T19:53:42.308Z,3.53
2023-04-16T19:56:10.842Z,4.10
2023-04-16T19:58:39.279Z,3.97
2023-04-16T20:01:11.008Z,4.73
2023-04-16T20:03:39.936Z,4.10
2023-04-16T20:06:09.707Z,3.60
2023-04-16T20:08:38.224Z,2.80
2023-04-16T20:11:08.660Z,4.37
2023-04-16T20:13:37.678Z,3.30
2023-04-16T20:16:09.319Z,4.87
2023-04-16T20:18:41.534Z,4.63
2023-04-16T20:21:11.633Z,4.50
2023-04-16T20:23:40.110Z,3.53
2023-04-16T20:26:08.837Z,4.40
2023-04-16T20:28:37.667Z,6.20
2023-04-16T20:31:06.208Z,6.87
2023-04-16T20:33:34.806Z,3.07
2023-04-16T20:36:03.309Z,4.60
2023-04-16T20:38:34.382Z,12.97
2023-04-16T20:41:10.611Z,14.93
2023-04-16T20:43:40.893Z,7.53
2023-04-16T20:46:09.446Z,4.43
2023-04-16T20:48:38.611Z,17.27
2023-04-16T20:51:09.439Z,8.03
2023-04-16T20:53:39.268Z,8.83
2023-04-16T20:56:09.183Z,7.60
2023-04-16T20:58:37.583Z,5.70
2023-04-16T21:01:06.016Z,3.73
2023-04-16T21:03:34.641Z,3.13
2023-04-16T21:06:03.561Z,2.90
2023-04-16T21:08:31.908Z,4.87
2023-04-16T21:11:01.706Z,7.13
2023-04-16T21:13:30.010Z,6.50
2023-04-16T21:15:58.342Z,6.10
2023-04-16T21:18:26.640Z,4.47
2023-04-16T21:20:54.970Z,5.33
2023-04-16T21:23:23.342Z,7.07
2023-04-16T21:25:51.652Z,3.83
2023-04-16T21:28:21.295Z,4.23
2023-04-16T21:30:52.425Z,5.43
2023-04-16T21:33:20.844Z,5.50
2023-04-16T21:35:52.418Z,2.50
2023-04-16T21:38:21.040Z,3.80
2023-04-16T21:40:50.778Z,4.97
2023-04-16T21:43:19.157Z,7.70
2023-04-16T21:45:48.812Z,3.50
2023-04-16T21:48:17.172Z,5.63
2023-04-16T21:50:45.471Z,5.03
2023-04-16T21:53:13.770Z,5.13
2023-04-16T21:55:42.311Z,4.00
2023-04-16T21:58:10.603Z,4.57
2023-04-16T22:00:38.993Z,4.83
2023-04-16T22:03:09.130Z,3.70
2023-04-16T22:05:37.598Z,4.13
2023-04-16T22:08:20.952Z,3.43
2023-04-16T22:10:52.081Z,3.33
2023-04-16T22:13:21.682Z,3.07
2023-04-16T22:15:49.949Z,5.10
2023-04-16T22:18:19.749Z,4.03
2023-04-16T22:20:51.016Z,4.27
2023-04-16T22:23:19.351Z,4.13
2023-04-16T22:25:47.718Z,2.87
2023-04-16T22:28:16.062Z,2.73
2023-04-16T22:30:44.385Z,3.30
2023-04-16T22:33:12.764Z,3.40
2023-04-16T22:35:42.496Z,2.73
2023-04-16T22:38:10.985Z,3.20
2023-04-16T22:40:39.428Z,2.93
2023-04-16T22:43:07.770Z,3.43
2023-04-16T22:45:37.474Z,4.00
2023-04-16T22:48:06.153Z,2.80
2023-04-16T22:50:34.467Z,5.93
2023-04-16T22:53:04.204Z,3.20
2023-04-16T22:55:32.507Z,2.80
2023-04-16T22:58:01.221Z,4.77
2023-04-16T23:00:29.671Z,3.03
2023-04-16T23:02:58.082Z,4.37
2023-04-16T23:05:26.501Z,3.47
2023-04-16T23:07:54.820Z,3.67
2023-04-16T23:10:24.496Z,7.37
2023-04-16T23:12:52.818Z,3.00
2023-04-16T23:15:21.209Z,3.20
2023-04-16T23:17:49.586Z,5.70
2023-04-16T23:20:18.182Z,2.90
2023-04-16T23:22:46.579Z,4.83
2023-04-16T23:25:14.957Z,8.17
2023-04-16T23:27:44.869Z,3.60
2023-04-16T23:30:13.910Z,4.37
2023-04-16T23:32:42.276Z,3.20
2023-04-16T23:35:11.227Z,4.00
2023-04-16T23:37:39.593Z,5.97
2023-04-16T23:40:09.281Z,3.77
2023-04-16T23:42:37.533Z,3.50
2023-04-16T23:45:08.249Z,2.50
2023-04-16T23:47:36.632Z,3.23
2023-04-16T23:50:05.844Z,4.00
2023-04-16T23:52:34.225Z,3.00
2023-04-16T23:55:02.551Z,3.80
2023-04-16T23:57:31.028Z,3.90
2023-04-16T23:59:59.320Z,3.50
